Time;durP1;ratioP1;P1;durP2;ratioP2;P2;SDS_P1;SDS_P2;PMS_P1;PMS_P2;Temp;Humidity;BMP_temperature;BMP_pressure;BME280_temperature;BME280_humidity;BME280_pressure;Samples;Min_cycle;Max_cycle;Signal;HPM_P1;HPM_P2
2022/05/11 00:00:06;;;;;;;9.18;6.47;;;16.60;95.90;;;;;;6205150;28;20076;-84
2022/05/11 00:03:08;;;;;;;11.18;6.63;;;16.60;96.00;;;;;;6205943;28;20439;-85
2022/05/11 00:06:10;;;;;;;8.30;5.90;;;16.60;96.00;;;;;;6206438;28;20050;-84
2022/05/11 00:09:14;;;;;;;7.80;6.60;;;16.50;96.10;;;;;;6205318;28;20043;-86
2022/05/11 00:12:16;;;;;;;11.68;6.05;;;16.50;96.10;;;;;;6205723;28;20423;-84
2022/05/11 00:15:21;;;;;;;9.88;7.10;;;16.50;96.20;;;;;;6205308;28;20161;-86
2022/05/11 00:18:23;;;;;;;8.25;6.63;;;16.40;96.20;;;;;;6203993;28;20058;-85
2022/05/11 00:21:27;;;;;;;8.88;6.65;;;16.40;96.20;;;;;;6205289;28;20054;-85
2022/05/11 00:24:29;;;;;;;10.38;7.18;;;16.40;96.20;;;;;;6204191;28;20049;-86
2022/05/11 00:27:31;;;;;;;7.75;6.10;;;16.40;96.20;;;;;;6204086;28;20086;-83
2022/05/11 00:30:34;;;;;;;8.05;6.13;;;16.30;96.20;;;;;;6203652;28;20574;-86
2022/05/11 00:33:36;;;;;;;8.45;6.32;;;16.30;96.20;;;;;;6204691;28;20471;-86
2022/05/11 00:36:38;;;;;;;8.95;6.00;;;16.30;96.20;;;;;;6204061;28;20048;-84
2022/05/11 00:39:40;;;;;;;6.97;5.90;;;16.20;96.20;;;;;;6204319;28;20053;-85
2022/05/11 00:42:41;;;;;;;10.60;7.45;;;16.20;96.10;;;;;;6204952;28;20136;-84
2022/05/11 00:45:50;;;;;;;11.57;8.35;;;16.20;96.10;;;;;;6204739;28;20042;-85
2022/05/11 00:52:20;;;;;;;8.40;6.22;;;16.10;96.20;;;;;;6204076;28;20038;-83
2022/05/11 00:55:26;;;;;;;11.07;6.72;;;16.10;96.30;;;;;;6201404;28;20184;-83
2022/05/11 00:58:34;;;;;;;12.20;6.88;;;16.00;96.40;;;;;;6204140;28;20634;-85
2022/05/11 01:01:39;;;;;;;10.93;7.18;;;15.90;96.30;;;;;;6204252;28;20140;-85
2022/05/11 01:04:44;;;;;;;8.77;6.57;;;15.90;96.30;;;;;;6204085;28;20503;-85
2022/05/11 01:07:46;;;;;;;10.48;6.10;;;15.90;96.40;;;;;;6204150;28;20049;-83
2022/05/11 01:10:49;;;;;;;8.77;7.15;;;15.80;96.40;;;;;;6204184;28;20110;-85
2022/05/11 01:13:51;;;;;;;11.05;7.47;;;15.80;96.40;;;;;;6203209;28;20180;-85
2022/05/11 01:16:55;;;;;;;11.30;7.28;;;15.80;96.40;;;;;;6203996;28;20054;-85
2022/05/11 01:19:57;;;;;;;10.02;6.40;;;15.80;96.50;;;;;;6203132;28;20042;-85
2022/05/11 01:23:05;;;;;;;8.30;5.95;;;15.70;96.50;;;;;;6204239;28;20054;-84
2022/05/11 01:26:08;;;;;;;9.48;7.00;;;15.70;96.60;;;;;;6203306;28;20524;-84
2022/05/11 01:29:10;;;;;;;9.50;6.65;;;15.70;96.60;;;;;;6202693;28;20176;-83
2022/05/11 01:32:12;;;;;;;13.00;7.78;;;15.70;96.60;;;;;;6203307;28;20529;-84
2022/05/11 01:35:35;;;;;;;9.85;7.03;;;15.70;96.60;;;;;;6204216;28;20064;-84
2022/05/11 01:38:41;;;;;;;8.45;6.18;;;15.60;96.60;;;;;;6203200;28;20069;-85
2022/05/11 01:41:50;;;;;;;12.40;6.13;;;15.70;96.50;;;;;;6204947;28;20415;-84
2022/05/11 01:44:52;;;;;;;9.52;6.07;;;15.60;96.50;;;;;;6204187;28;20070;-84
2022/05/11 01:47:55;;;;;;;8.05;6.32;;;15.60;96.50;;;;;;6209282;28;20042;-82
2022/05/11 01:50:57;;;;;;;8.43;6.15;;;15.60;96.50;;;;;;6203735;28;20054;-84
2022/05/11 01:53:59;;;;;;;6.50;5.40;;;15.60;96.50;;;;;;6202252;28;20061;-83
2022/05/11 01:57:03;;;;;;;8.85;6.22;;;15.50;96.50;;;;;;6201912;28;20053;-83
2022/05/11 02:00:07;;;;;;;9.70;6.05;;;15.50;96.50;;;;;;6201092;28;20141;-85
2022/05/11 02:03:09;;;;;;;8.23;5.30;;;15.40;96.50;;;;;;6201416;28;20176;-86
2022/05/11 02:09:30;;;;;;;12.05;6.15;;;15.30;96.50;;;;;;6199564;28;20043;-86
2022/05/11 02:12:36;;;;;;;7.85;5.90;;;15.30;96.60;;;;;;6200699;28;20056;-86
2022/05/11 02:15:38;;;;;;;7.90;5.95;;;15.20;96.60;;;;;;6200995;28;20038;-83
2022/05/11 02:18:40;;;;;;;7.70;5.97;;;15.10;96.60;;;;;;6202469;28;20189;-83
2022/05/11 02:21:42;;;;;;;10.68;6.07;;;15.10;96.60;;;;;;6201596;28;20405;-83
2022/05/11 02:24:44;;;;;;;7.05;5.30;;;15.00;96.70;;;;;;6201120;28;20249;-84
2022/05/11 02:27:49;;;;;;;11.73;6.35;;;15.00;96.70;;;;;;6209654;28;20050;-84
2022/05/11 02:30:52;;;;;;;8.90;6.30;;;14.90;96.70;;;;;;6214066;28;20475;-84
2022/05/11 02:33:54;;;;;;;13.05;7.47;;;14.90;96.80;;;;;;6227125;28;20073;-85
2022/05/11 02:36:56;;;;;;;6.05;5.45;;;14.90;96.90;;;;;;6213717;28;20456;-85
2022/05/11 02:39:57;;;;;;;7.65;5.85;;;14.90;96.90;;;;;;6202651;28;20077;-86
2022/05/11 02:43:01;;;;;;;10.70;6.47;;;14.80;96.90;;;;;;6204133;28;20476;-86
2022/05/11 02:46:03;;;;;;;8.80;5.90;;;14.70;96.80;;;;;;6203387;28;20129;-86
2022/05/11 02:49:05;;;;;;;10.30;6.65;;;14.70;96.90;;;;;;6201873;28;20050;-86
2022/05/11 02:52:07;;;;;;;8.55;6.25;;;14.70;96.80;;;;;;6203696;28;20049;-87
2022/05/11 02:55:10;;;;;;;9.15;6.40;;;14.70;96.80;;;;;;6204722;28;20054;-85
2022/05/11 02:58:15;;;;;;;8.70;6.70;;;14.60;96.80;;;;;;6202606;28;20050;-86
2022/05/11 03:01:18;;;;;;;8.43;6.55;;;14.60;96.80;;;;;;6204010;28;20125;-87
2022/05/11 03:04:21;;;;;;;7.65;5.97;;;14.60;97.00;;;;;;6203979;28;20050;-87
2022/05/11 03:07:23;;;;;;;8.50;5.88;;;14.60;97.00;;;;;;6203599;28;20050;-84
2022/05/11 03:10:25;;;;;;;7.88;6.25;;;14.50;97.00;;;;;;6201602;28;20061;-85
2022/05/11 03:13:28;;;;;;;9.45;7.03;;;14.50;97.00;;;;;;6202081;28;20047;-84
2022/05/11 03:16:29;;;;;;;10.75;6.53;;;14.50;97.00;;;;;;6201776;28;20049;-86
2022/05/11 03:19:31;;;;;;;10.52;6.97;;;14.50;97.00;;;;;;6201359;28;20389;-85
2022/05/11 03:22:33;;;;;;;8.43;5.70;;;14.50;97.00;;;;;;6202069;28;20046;-86
2022/05/11 03:25:35;;;;;;;7.93;6.10;;;14.50;97.00;;;;;;6201280;28;20046;-86
2022/05/11 03:28:39;;;;;;;8.93;5.45;;;14.50;97.00;;;;;;6201626;28;20054;-84
2022/05/11 03:34:36;;;;;;;14.73;5.90;;;14.40;97.00;;;;;;6201534;28;20042;-83
2022/05/11 03:35:03;;;;;;;7.70;6.00;;;14.40;97.00;;;;;;6201329;28;20415;-84
2022/05/11 03:38:05;;;;;;;10.90;6.18;;;14.30;96.90;;;;;;6202253;28;20046;-85
2022/05/11 03:41:07;;;;;;;11.20;7.05;;;14.30;96.90;;;;;;6201881;28;20039;-84
2022/05/11 03:44:10;;;;;;;8.15;5.70;;;14.20;96.90;;;;;;6202210;28;20865;-84
2022/05/11 03:47:12;;;;;;;8.18;5.70;;;14.20;97.10;;;;;;6203482;28;20064;-85
2022/05/11 03:50:16;;;;;;;11.05;5.45;;;14.20;97.10;;;;;;6202644;28;20046;-84
2022/05/11 03:53:17;;;;;;;7.38;5.57;;;14.10;97.00;;;;;;6197472;28;20132;-83
2022/05/11 03:56:19;;;;;;;9.38;6.40;;;14.20;97.10;;;;;;6188892;28;20134;-84
2022/05/11 03:59:22;;;;;;;7.65;6.18;;;14.20;97.10;;;;;;6182381;28;20086;-83
2022/05/11 04:02:24;;;;;;;7.97;5.85;;;14.10;97.00;;;;;;6182445;28;20095;-83
2022/05/11 04:05:26;;;;;;;9.73;6.18;;;14.10;97.30;;;;;;6181805;28;20073;-83
2022/05/11 04:08:28;;;;;;;11.02;5.72;;;14.10;97.00;;;;;;6182206;28;20053;-85
2022/05/11 04:11:30;;;;;;;6.90;4.93;;;14.10;97.00;;;;;;6182408;28;20366;-85
2022/05/11 04:14:33;;;;;;;10.38;5.13;;;14.10;97.00;;;;;;6183188;28;20444;-85
2022/05/11 04:17:35;;;;;;;7.72;5.65;;;14.10;96.90;;;;;;6181636;28;20051;-85
2022/05/11 04:20:37;;;;;;;9.15;5.97;;;14.10;96.90;;;;;;6182055;28;20120;-84
2022/05/11 04:23:40;;;;;;;8.52;6.10;;;14.10;96.90;;;;;;6182118;28;20102;-82
2022/05/11 04:26:42;;;;;;;10.88;6.43;;;14.10;96.90;;;;;;6181412;28;20524;-81
2022/05/11 04:29:45;;;;;;;10.40;5.85;;;14.10;96.90;;;;;;6180576;28;20078;-83
2022/05/11 04:32:47;;;;;;;8.68;5.00;;;14.20;96.90;;;;;;6181414;28;20046;-83
2022/05/11 04:35:49;;;;;;;8.57;5.60;;;14.20;96.80;;;;;;6181395;28;20120;-85
2022/05/11 04:38:50;;;;;;;8.60;5.60;;;14.30;96.70;;;;;;6181648;28;20047;-83
2022/05/11 04:41:52;;;;;;;7.07;5.47;;;14.20;96.70;;;;;;6180808;28;20054;-84
2022/05/11 04:44:55;;;;;;;6.82;5.03;;;14.50;96.60;;;;;;6181107;28;20058;-83
2022/05/11 04:47:57;;;;;;;11.30;5.22;;;14.60;96.50;;;;;;6180966;28;20587;-84
2022/05/11 04:51:03;;;;;;;11.77;5.05;;;14.70;96.40;;;;;;6182309;28;20047;-84
2022/05/11 04:54:05;;;;;;;9.38;5.30;;;15.00;96.20;;;;;;6182371;28;20051;-83
2022/05/11 04:57:07;;;;;;;7.22;5.45;;;15.20;96.00;;;;;;6181534;28;20097;-82
2022/05/11 05:00:14;;;;;;;8.38;4.60;;;15.40;95.70;;;;;;6181333;28;20049;-83
2022/05/11 05:03:16;;;;;;;10.20;5.13;;;16.40;94.90;;;;;;6180125;28;20058;-83
2022/05/11 05:06:18;;;;;;;9.93;5.38;;;18.30;92.30;;;;;;6183217;28;20121;-83
2022/05/11 05:09:20;;;;;;;14.45;7.43;;;20.30;89.70;;;;;;6181821;28;20054;-84
2022/05/11 05:12:24;;;;;;;7.05;4.30;;;22.00;84.30;;;;;;6183088;28;20074;-84
2022/05/11 05:15:27;;;;;;;10.93;4.53;;;23.30;79.30;;;;;;6185372;28;20051;-83
2022/05/11 05:18:29;;;;;;;10.15;4.25;;;24.10;75.80;;;;;;6185612;28;20075;-85
2022/05/11 05:21:31;;;;;;;5.30;3.92;;;24.40;74.00;;;;;;6191085;28;20043;-84
2022/05/11 05:24:33;;;;;;;12.25;4.43;;;24.10;73.90;;;;;;6187685;28;20130;-82
2022/05/11 05:27:35;;;;;;;24.13;4.28;;;23.40;75.30;;;;;;6179161;28;20055;-84
2022/05/11 05:33:59;;;;;;;8.07;3.63;;;22.20;79.40;;;;;;6178551;28;20043;-83
2022/05/11 05:37:01;;;;;;;9.10;4.25;;;22.30;79.50;;;;;;6178186;28;20070;-84
2022/05/11 05:40:05;;;;;;;10.85;3.85;;;22.90;78.40;;;;;;6216011;23;20174;-80
2022/05/11 05:43:07;;;;;;;12.65;4.22;;;23.80;76.10;;;;;;6208602;28;20061;-82
2022/05/11 05:46:10;;;;;;;10.88;3.70;;;25.10;73.30;;;;;;6206366;28;20070;-82
2022/05/11 05:49:12;;;;;;;6.63;3.63;;;26.40;70.00;;;;;;6201898;28;20100;-82
2022/05/11 05:52:17;;;;;;;12.27;3.50;;;27.20;67.60;;;;;;6202754;28;20050;-81
2022/05/11 05:55:21;;;;;;;5.43;3.30;;;28.10;65.10;;;;;;6202020;28;20051;-83
2022/05/11 05:58:23;;;;;;;5.30;3.10;;;29.40;62.20;;;;;;6202145;28;20113;-83
2022/05/11 06:01:26;;;;;;;16.27;3.95;;;30.60;58.70;;;;;;6201775;28;20432;-81
2022/05/11 06:04:28;;;;;;;2.78;2.53;;;31.90;54.70;;;;;;6202409;28;20443;-81
2022/05/11 06:07:30;;;;;;;4.57;2.90;;;32.80;50.70;;;;;;6202224;28;20128;-82
2022/05/11 06:10:34;;;;;;;3.13;2.42;;;33.40;48.30;;;;;;6202707;28;20058;-83
2022/05/11 06:13:36;;;;;;;8.15;2.85;;;34.20;46.10;;;;;;6201858;28;20043;-81
2022/05/11 06:16:40;;;;;;;3.67;2.40;;;34.80;44.50;;;;;;6201439;28;20134;-82
2022/05/11 06:19:41;;;;;;;3.78;2.80;;;35.50;42.90;;;;;;6201905;28;20045;-81
2022/05/11 06:22:43;;;;;;;4.45;1.80;;;35.90;41.50;;;;;;6202465;28;20485;-80
2022/05/11 06:25:45;;;;;;;2.92;1.88;;;36.60;40.40;;;;;;6201708;28;20096;-80
2022/05/11 06:28:47;;;;;;;2.53;1.80;;;37.00;39.30;;;;;;6201684;28;20049;-80
2022/05/11 06:31:50;;;;;;;3.05;2.10;;;37.40;38.30;;;;;;6202228;28;20046;-82
2022/05/11 06:34:53;;;;;;;2.28;1.55;;;37.90;37.40;;;;;;6201674;28;20415;-82
2022/05/11 06:37:57;;;;;;;2.33;1.83;;;38.50;36.10;;;;;;6201265;28;20053;-81
2022/05/11 06:41:06;;;;;;;4.80;2.03;;;39.00;35.20;;;;;;6200675;28;20046;-84
2022/05/11 06:44:09;;;;;;;2.70;1.75;;;39.50;34.00;;;;;;6201384;28;20043;-82
2022/05/11 06:47:12;;;;;;;3.55;1.60;;;40.10;34.00;;;;;;6174092;28;20057;-80
2022/05/11 06:50:14;;;;;;;5.78;2.13;;;40.60;33.00;;;;;;6200000;28;20129;-82
2022/05/11 06:53:16;;;;;;;2.80;2.15;;;41.10;32.50;;;;;;6200337;28;20053;-83
2022/05/11 06:59:40;;;;;;;6.28;1.92;;;41.70;30.80;;;;;;6189553;28;20038;-84
2022/05/11 07:03:23;;;;;;;9.43;1.77;;;41.40;30.40;;;;;;6056089;29;20059;-83
2022/05/11 07:06:24;;;;;;;4.32;1.80;;;38.30;33.20;;;;;;6161536;28;20074;-83
2022/05/11 07:09:28;;;;;;;3.00;1.73;;;35.30;36.70;;;;;;6174734;28;20054;-82
2022/05/11 07:12:35;;;;;;;5.35;2.17;;;33.20;39.80;;;;;;6176565;28;20057;-82
2022/05/11 07:15:37;;;;;;;4.25;2.53;;;31.80;41.90;;;;;;6177681;28;20181;-82
2022/05/11 07:18:40;;;;;;;5.72;2.25;;;30.80;43.90;;;;;;6176181;28;20133;-83
2022/05/11 07:21:41;;;;;;;7.25;1.98;;;30.00;45.60;;;;;;6175631;28;20054;-82
2022/05/11 07:24:43;;;;;;;4.65;2.38;;;29.50;47.30;;;;;;6175541;28;20421;-83
2022/05/11 07:27:46;;;;;;;4.38;1.95;;;29.20;48.30;;;;;;6182966;28;20125;-82
2022/05/11 07:30:48;;;;;;;4.95;2.00;;;28.80;48.90;;;;;;6197947;28;20050;-82
2022/05/11 07:33:51;;;;;;;5.40;2.33;;;28.40;50.20;;;;;;6205061;28;20129;-81
2022/05/11 07:36:55;;;;;;;7.93;2.20;;;28.30;50.10;;;;;;6204746;28;20110;-82
2022/05/11 07:39:56;;;;;;;4.95;2.42;;;28.40;50.90;;;;;;6203926;28;20069;-82
2022/05/11 07:43:00;;;;;;;8.32;2.00;;;28.50;52.10;;;;;;6208263;28;20525;-82
2022/05/11 07:46:02;;;;;;;3.33;1.77;;;28.60;51.70;;;;;;6205059;28;20046;-83
2022/05/11 07:49:06;;;;;;;1.90;1.60;;;28.60;50.10;;;;;;6204302;28;20050;-82
2022/05/11 07:52:09;;;;;;;5.32;1.90;;;28.50;49.70;;;;;;6205379;28;20038;-82
2022/05/11 07:55:11;;;;;;;2.97;1.95;;;28.40;50.60;;;;;;6204996;28;20051;-82
2022/05/11 08:01:33;;;;;;;3.13;1.77;;;28.60;50.70;;;;;;6204317;28;20491;-82
2022/05/11 08:04:38;;;;;;;3.85;2.28;;;28.80;50.70;;;;;;6204558;28;20531;-82
2022/05/11 08:07:42;;;;;;;2.95;1.90;;;28.90;49.70;;;;;;6204436;28;20054;-82
2022/05/11 08:10:46;;;;;;;5.78;1.58;;;29.00;50.00;;;;;;6204406;28;20430;-82
2022/05/11 08:13:48;;;;;;;5.10;1.70;;;29.00;50.10;;;;;;6204108;28;20050;-82
2022/05/11 08:16:52;;;;;;;3.10;1.60;;;29.10;49.00;;;;;;6203799;28;20050;-82
2022/05/11 08:19:55;;;;;;;1.98;1.55;;;29.10;48.90;;;;;;6203615;28;20053;-82
2022/05/11 08:22:58;;;;;;;4.15;1.70;;;29.10;48.30;;;;;;6204955;28;20047;-82
2022/05/11 08:26:00;;;;;;;4.35;1.95;;;29.00;48.30;;;;;;6203876;28;20046;-82
2022/05/11 08:29:01;;;;;;;3.67;1.63;;;29.00;48.20;;;;;;6202741;28;20125;-82
2022/05/11 08:35:28;;;;;;;5.53;1.73;;;29.00;48.10;;;;;;6203837;28;20050;-82
2022/05/11 08:38:32;;;;;;;5.25;1.85;;;29.10;48.60;;;;;;6202843;28;20423;-82
2022/05/11 08:41:38;;;;;;;5.93;2.20;;;29.30;47.20;;;;;;6204562;28;20042;-82
2022/05/11 08:44:46;;;;;;;2.10;1.85;;;29.20;47.10;;;;;;6205979;28;20466;-84
2022/05/11 08:47:48;;;;;;;4.82;1.67;;;29.20;47.10;;;;;;6206299;28;20114;-86
2022/05/11 08:50:51;;;;;;;4.35;1.60;;;29.10;47.40;;;;;;6208484;28;20054;-85
2022/05/11 08:54:10;;;;;;;5.18;2.03;;;29.20;47.60;;;;;;6206830;28;20069;-84
2022/05/11 08:57:16;;;;;;;3.45;1.80;;;29.30;47.80;;;;;;6205696;28;20129;-84
2022/05/11 09:00:19;;;;;;;4.13;1.40;;;29.50;47.10;;;;;;6200223;28;20070;-83
2022/05/11 09:03:31;;;;;;;2.53;1.67;;;29.60;46.40;;;;;;6184491;28;20049;-82
2022/05/11 09:06:36;;;;;;;6.28;2.03;;;29.80;45.90;;;;;;6199343;28;20193;-82
2022/05/11 09:09:39;;;;;;;4.28;1.52;;;29.80;46.30;;;;;;6191567;28;20054;-84
2022/05/11 09:12:41;;;;;;;6.68;1.90;;;30.00;46.50;;;;;;6194246;28;20050;-81
2022/05/11 09:15:49;;;;;;;2.50;1.77;;;30.00;46.20;;;;;;6212219;28;20062;-83
2022/05/11 09:18:50;;;;;;;;;;;30.10;46.70;;;;;;6206068;28;20054;-84
2022/05/11 09:21:56;;;;;;;3.22;1.60;;;30.30;46.70;;;;;;6181799;28;20427;-84
2022/05/11 09:25:00;;;;;;;3.25;1.75;;;30.60;47.50;;;;;;6195214;28;20051;-83
2022/05/11 09:28:20;;;;;;;2.97;1.52;;;30.90;47.20;;;;;;6202502;28;20176;-82
2022/05/11 09:31:27;;;;;;;3.25;1.48;;;31.00;46.20;;;;;;6189380;28;20060;-82
2022/05/11 09:34:33;;;;;;;2.92;1.85;;;31.20;45.80;;;;;;6203414;28;20046;-82
2022/05/11 09:37:37;;;;;;;2.28;1.98;;;31.40;44.80;;;;;;6202111;28;20057;-82
2022/05/11 09:40:55;;;;;;;3.65;1.50;;;31.60;44.70;;;;;;6201927;28;20503;-82
2022/05/11 09:43:58;;;;;;;2.58;1.75;;;31.70;45.30;;;;;;6202384;28;20050;-81
2022/05/11 09:47:00;;;;;;;3.00;1.83;;;31.90;44.10;;;;;;6202669;28;20416;-80
2022/05/11 09:50:29;;;;;;;3.05;1.70;;;32.10;43.90;;;;;;6201427;28;20053;-80
2022/05/11 09:53:37;;;;;;;2.63;1.92;;;33.80;41.80;;;;;;6164795;28;20050;-81
2022/05/11 09:56:44;;;;;;;2.72;1.50;;;35.40;39.70;;;;;;6190525;28;20046;-80
2022/05/11 09:59:49;;;;;;;;;;;36.30;38.50;;;;;;6197756;28;20053;-80
2022/05/11 10:02:54;;;;;;;3.20;1.40;;;36.40;36.40;;;;;;6201442;28;19921;-80
2022/05/11 10:05:57;;;;;;;6.53;1.67;;;36.00;37.30;;;;;;6201077;28;20181;-79
2022/05/11 10:09:01;;;;;;;3.47;1.80;;;35.40;37.20;;;;;;6200959;28;20046;-79
2022/05/11 10:12:08;;;;;;;3.20;1.35;;;34.70;37.20;;;;;;6201234;28;20034;-80
2022/05/11 10:22:03;;;;;;;3.45;1.85;;;33.00;39.60;;;;;;6177801;28;20563;-79
2022/05/11 10:25:16;;;;;;;5.85;1.45;;;33.00;39.70;;;;;;6191881;28;20397;-79
2022/05/11 10:28:28;;;;;;;6.40;1.70;;;33.10;39.30;;;;;;6191651;28;20057;-81
2022/05/11 10:31:36;;;;;;;1.65;1.25;;;33.00;39.20;;;;;;6191299;28;20057;-82
2022/05/11 10:34:46;;;;;;;3.92;1.27;;;32.90;39.30;;;;;;6200634;28;20054;-81
2022/05/11 10:38:02;;;;;;;4.38;1.75;;;33.00;40.60;;;;;;6199465;28;20187;-81
2022/05/11 10:41:15;;;;;;;4.95;1.30;;;33.30;38.30;;;;;;6199381;28;20052;-80
2022/05/11 10:44:36;;;;;;;7.20;1.45;;;33.30;38.10;;;;;;6199171;28;20862;-80
2022/05/11 10:47:51;;;;;;;2.22;1.25;;;33.50;38.00;;;;;;6199879;28;20522;-79
2022/05/11 10:51:00;;;;;;;4.10;1.58;;;33.50;37.90;;;;;;6201102;28;20055;-81
2022/05/11 10:54:11;;;;;;;3.00;1.42;;;33.50;38.10;;;;;;6200858;28;20173;-79
2022/05/11 10:57:25;;;;;;;2.80;1.15;;;33.70;37.70;;;;;;6199967;28;20551;-81
2022/05/11 11:00:29;;;;;;;4.78;1.60;;;33.80;36.70;;;;;;6199053;28;20136;-81
2022/05/11 11:04:16;;;;;;;2.88;1.00;;;33.80;36.40;;;;;;6194302;28;20416;-79
2022/05/11 11:07:26;;;;;;;3.58;1.73;;;33.80;37.40;;;;;;6198082;28;20097;-81
2022/05/11 11:10:33;;;;;;;4.28;1.33;;;34.00;37.40;;;;;;6200047;28;20416;-81
2022/05/11 11:13:50;;;;;;;1.40;1.30;;;34.10;37.10;;;;;;6175656;28;20132;-81
2022/05/11 11:16:52;;;;;;;;;;;33.90;36.20;;;;;;6175677;28;20121;-81
2022/05/11 11:19:57;;;;;;;7.57;1.63;;;33.80;36.50;;;;;;6175942;28;19968;-81
2022/05/11 11:23:12;;;;;;;6.85;1.77;;;33.90;36.10;;;;;;6176810;28;20109;-80
2022/05/11 11:26:48;;;;;;;2.83;2.08;;;33.70;36.00;;;;;;6176918;28;20055;-81
2022/05/11 11:30:16;;;;;;;1.80;1.45;;;33.90;36.40;;;;;;6189897;28;20047;-84
2022/05/11 11:33:23;;;;;;;3.05;0.95;;;34.20;36.30;;;;;;6175994;28;20126;-82
2022/05/11 11:36:32;;;;;;;2.60;1.42;;;34.40;35.30;;;;;;6175307;28;20057;-81
2022/05/11 11:40:15;;;;;;;5.38;1.67;;;34.30;35.10;;;;;;6175784;28;20518;-81
2022/05/11 11:43:43;;;;;;;2.42;1.45;;;34.30;35.10;;;;;;6148968;28;20073;-82
2022/05/11 11:46:46;;;;;;;2.95;1.30;;;34.30;34.60;;;;;;6180098;28;20051;-82
2022/05/11 11:49:48;;;;;;;2.20;1.58;;;34.40;35.40;;;;;;6177925;28;20122;-82
2022/05/11 11:53:09;;;;;;;4.15;1.58;;;34.40;35.00;;;;;;6178251;28;20046;-82
2022/05/11 11:56:45;;;;;;;3.55;1.40;;;34.50;34.50;;;;;;6179617;28;20124;-83
2022/05/11 11:59:50;;;;;;;3.38;1.50;;;34.70;34.70;;;;;;6191753;28;20047;-80
2022/05/11 12:02:52;;;;;;;3.60;1.25;;;34.70;34.60;;;;;;6192552;28;20054;-79
2022/05/11 12:15:01;;;;;;;8.05;1.65;;;34.70;35.10;;;;;;6200566;28;20046;-81
2022/05/11 12:16:04;;;;;;;3.47;1.20;;;35.10;34.60;;;;;;6204482;28;20423;-81
2022/05/11 12:19:10;;;;;;;2.70;1.13;;;35.00;34.90;;;;;;6204611;28;20508;-79
2022/05/11 12:22:22;;;;;;;1.85;1.05;;;34.70;35.40;;;;;;6205061;28;20129;-79
2022/05/11 12:25:32;;;;;;;5.43;1.65;;;34.80;34.70;;;;;;6203875;28;20057;-78
2022/05/11 12:28:37;;;;;;;4.30;1.42;;;34.80;35.10;;;;;;6196449;28;20049;-79
2022/05/11 12:31:40;;;;;;;6.03;1.05;;;34.80;34.80;;;;;;6195307;28;20121;-79
2022/05/11 12:34:44;;;;;;;6.18;1.60;;;35.00;34.90;;;;;;6203287;28;20050;-79
2022/05/11 12:37:54;;;;;;;2.28;1.45;;;35.10;34.60;;;;;;6203618;28;20050;-80
2022/05/11 12:40:57;;;;;;;1.45;1.35;;;34.90;34.70;;;;;;6204039;28;20046;-80
2022/05/11 12:44:02;;;;;;;2.95;1.67;;;34.80;34.60;;;;;;6202697;28;20170;-80
2022/05/11 12:47:07;;;;;;;5.00;1.58;;;34.80;35.40;;;;;;6203811;28;20136;-80
2022/05/11 12:50:17;;;;;;;3.15;1.40;;;34.80;35.20;;;;;;6198729;28;20057;-79
2022/05/11 12:53:27;;;;;;;3.10;1.13;;;34.80;35.60;;;;;;6203325;28;20416;-80
2022/05/11 12:56:32;;;;;;;5.78;1.38;;;34.90;34.80;;;;;;6202957;28;20053;-79
2022/05/11 12:59:34;;;;;;;2.42;1.17;;;34.90;34.00;;;;;;6195056;28;20519;-79
2022/05/11 13:02:39;;;;;;;5.65;1.40;;;34.60;34.80;;;;;;6191601;28;20534;-79
2022/05/11 13:05:41;;;;;;;4.50;1.33;;;34.60;34.10;;;;;;6181221;28;20133;-80
2022/05/11 13:08:46;;;;;;;2.63;1.20;;;34.70;34.50;;;;;;6198221;28;20038;-81
2022/05/11 13:11:49;;;;;;;0.75;0.70;;;34.90;33.90;;;;;;6202693;28;20121;-80
2022/05/11 13:14:53;;;;;;;2.10;1.00;;;35.00;33.10;;;;;;6205592;28;20251;-80
2022/05/11 13:17:59;;;;;;;5.45;1.10;;;34.90;32.40;;;;;;6202396;28;20132;-80
2022/05/11 13:21:05;;;;;;;4.03;0.98;;;34.90;32.30;;;;;;6206045;28;20097;-80
2022/05/11 13:24:08;;;;;;;3.92;0.73;;;35.00;32.20;;;;;;6203450;28;20091;-80
2022/05/11 13:27:34;;;;;;;3.05;1.60;;;35.00;32.10;;;;;;6203643;28;20054;-80
2022/05/11 13:30:40;;;;;;;6.00;0.90;;;35.00;32.70;;;;;;6189330;28;20046;-80
2022/05/11 13:33:45;;;;;;;4.88;1.30;;;35.00;33.10;;;;;;6202814;28;20046;-80
2022/05/11 13:36:52;;;;;;;3.33;0.82;;;35.10;33.00;;;;;;6201271;28;20046;-81
2022/05/11 13:39:54;;;;;;;3.70;1.33;;;35.10;32.80;;;;;;6201712;28;20458;-81
2022/05/11 13:42:56;;;;;;;6.85;1.05;;;35.10;32.90;;;;;;6203974;28;20060;-80
2022/05/11 13:46:06;;;;;;;1.98;0.73;;;35.40;31.90;;;;;;6202300;28;20492;-82
2022/05/11 13:49:36;;;;;;;1.58;0.70;;;35.70;30.70;;;;;;6201364;28;20050;-81
2022/05/11 13:52:49;;;;;;;4.00;1.23;;;35.80;30.60;;;;;;6201274;28;20515;-81
2022/05/11 13:56:09;;;;;;;2.03;1.05;;;35.90;30.30;;;;;;6200746;28;20418;-80
2022/05/11 13:59:16;;;;;;;6.85;0.90;;;36.00;30.20;;;;;;6199544;28;20050;-81
2022/05/11 14:02:17;;;;;;;;;;;36.00;30.90;;;;;;6193110;28;20065;-80
2022/05/11 14:05:21;;;;;;;3.17;1.55;;;36.10;30.20;;;;;;6187714;28;20012;-81
2022/05/11 14:08:22;;;;;;;3.83;0.93;;;36.30;30.40;;;;;;6175522;28;20178;-80
2022/05/11 14:11:25;;;;;;;4.70;0.93;;;36.20;30.10;;;;;;6175996;28;20050;-80
2022/05/11 14:14:27;;;;;;;2.90;0.70;;;36.10;30.10;;;;;;6176141;28;20409;-81
2022/05/11 14:17:30;;;;;;;2.97;0.70;;;35.80;29.50;;;;;;6176129;28;20062;-79
2022/05/11 14:20:33;;;;;;;0.75;0.57;;;35.40;29.90;;;;;;6176129;28;20047;-80
2022/05/11 14:23:35;;;;;;;2.75;0.82;;;35.20;29.70;;;;;;6175787;28;20042;-81
2022/05/11 14:26:38;;;;;;;5.18;1.77;;;35.10;30.00;;;;;;6177196;28;20051;-80
2022/05/11 14:29:39;;;;;;;5.68;1.08;;;35.10;30.00;;;;;;6188246;28;20401;-80
2022/05/11 14:32:45;;;;;;;2.33;0.73;;;35.00;29.50;;;;;;6179067;28;20094;-81
2022/05/11 14:35:49;;;;;;;4.70;0.60;;;34.90;29.50;;;;;;6175492;28;20042;-80
2022/05/11 14:38:50;;;;;;;5.82;0.70;;;34.90;29.90;;;;;;6176091;28;20058;-81
2022/05/11 14:41:52;;;;;;;2.05;1.00;;;34.90;29.20;;;;;;6177217;28;20054;-80
2022/05/11 14:44:54;;;;;;;2.85;0.73;;;34.90;29.00;;;;;;6178368;28;20513;-79
2022/05/11 14:48:01;;;;;;;2.38;0.60;;;35.00;29.00;;;;;;6177400;28;20079;-79
2022/05/11 14:51:06;;;;;;;3.45;0.80;;;35.00;28.90;;;;;;6176939;28;20051;-79
2022/05/11 14:54:13;;;;;;;4.78;0.98;;;34.90;28.80;;;;;;6177701;28;20181;-79
2022/05/11 15:03:55;;;;;;;2.00;0.63;;;34.70;29.10;;;;;;6196766;28;20070;-80
2022/05/11 15:06:58;;;;;;;0.55;0.40;;;34.60;29.10;;;;;;6202247;28;20054;-81
2022/05/11 15:10:00;;;;;;;2.28;0.95;;;34.60;29.10;;;;;;6179228;28;20054;-81
2022/05/11 15:16:22;;;;;;;3.08;0.70;;;34.50;28.80;;;;;;6203749;28;20050;-82
2022/05/11 15:19:23;;;;;;;2.45;0.52;;;34.30;28.70;;;;;;6202066;28;20154;-81
2022/05/11 15:22:28;;;;;;;3.17;0.60;;;34.20;28.80;;;;;;6183447;28;20401;-81
2022/05/11 15:25:34;;;;;;;5.85;1.30;;;34.20;28.60;;;;;;6201353;28;20053;-81
2022/05/11 15:28:37;;;;;;;4.05;0.68;;;34.10;27.80;;;;;;6197599;28;20054;-80
2022/05/11 15:31:42;;;;;;;2.25;0.65;;;34.10;28.00;;;;;;6198959;28;20113;-80
2022/05/11 15:34:58;;;;;;;2.55;0.40;;;34.00;27.70;;;;;;6208657;28;20070;-80
2022/05/11 15:41:27;;;;;;;1.02;0.50;;;33.80;27.90;;;;;;6206514;28;20050;-81
2022/05/11 15:44:29;;;;;;;3.35;0.77;;;33.90;28.60;;;;;;6207279;28;20049;-80
2022/05/11 15:47:31;;;;;;;2.13;0.60;;;33.90;28.10;;;;;;6214526;28;20535;-81
2022/05/11 15:50:35;;;;;;;3.03;0.47;;;34.00;27.80;;;;;;6219395;28;20054;-80
2022/05/11 15:53:39;;;;;;;2.22;0.60;;;33.90;27.80;;;;;;6213100;28;20106;-81
2022/05/11 15:56:41;;;;;;;1.95;1.02;;;33.90;27.90;;;;;;6213963;28;20058;-80
2022/05/11 15:59:43;;;;;;;4.18;0.80;;;34.00;27.90;;;;;;6209574;28;20042;-80
2022/05/11 16:02:46;;;;;;;1.63;0.60;;;33.80;27.60;;;;;;6189728;28;20047;-80
2022/05/11 16:05:51;;;;;;;1.58;0.82;;;33.70;27.70;;;;;;6205217;28;20054;-80
2022/05/11 16:08:54;;;;;;;2.35;0.60;;;33.50;28.10;;;;;;6211895;28;20046;-80
2022/05/11 16:11:56;;;;;;;4.65;0.88;;;33.50;27.60;;;;;;6214181;28;20046;-80
2022/05/11 16:14:58;;;;;;;4.10;0.70;;;33.30;27.70;;;;;;6210889;28;20140;-80
2022/05/11 16:21:20;;;;;;;6.15;1.13;;;33.10;29.20;;;;;;6209770;28;20046;-81
2022/05/11 16:24:24;;;;;;;4.63;0.80;;;33.00;30.60;;;;;;6211594;28;20046;-81
2022/05/11 16:27:27;;;;;;;1.65;0.70;;;33.00;31.20;;;;;;6209956;28;20046;-79
2022/05/11 16:30:30;;;;;;;3.40;0.93;;;33.00;31.60;;;;;;6199437;28;20497;-80
2022/05/11 16:33:32;;;;;;;1.52;0.68;;;33.10;31.70;;;;;;6207487;28;20141;-79
2022/05/11 16:36:34;;;;;;;2.88;0.90;;;33.10;29.90;;;;;;6210577;28;20073;-80
2022/05/11 16:39:37;;;;;;;2.75;0.93;;;33.00;29.10;;;;;;6209954;28;20047;-81
2022/05/11 16:42:39;;;;;;;1.77;0.77;;;32.70;29.00;;;;;;6208544;28;20415;-79
2022/05/11 16:45:42;;;;;;;4.75;0.98;;;32.50;29.30;;;;;;6206469;28;20058;-79
2022/05/11 16:48:44;;;;;;;4.43;0.80;;;32.30;30.00;;;;;;6187645;28;20050;-79
2022/05/11 16:51:46;;;;;;;2.13;0.90;;;32.10;31.00;;;;;;6181408;28;20054;-80